Portada
METAR-TAF:

METAR-TAF

Aeroports :

Sullivan County International Airport

Monticello, Nova York, Estats Units d'Amèrica

latitud: 41-42N, longitud: 074-48W, altitud: 428 m

Observació

L'informe es va fer fa 36 minuts, a les 02:56 UTC
Vent 16 kt del Nord-Oest amb ràfegues de 23 kt
Temperatura -3°C
Humitat 68%
Pressió 1018 hPa
Visibilitat: 14.5 km
Cel ennuvolat a una alçada de 3600 ft

METAR: KMSV 160256Z AUTO 31016G23KT 9SM BKN036 M03/M08 A3006 RMK AO2 SNB17E52 SLP196 P0000 60000 T10281083 51020 FZRANO

Hora: 22:32 (03:32 UTC)


TAF: manca

Observacions i pronòstics meteorològics de més de 4000 aeroports (METAR i TAF).

Les estacions disponibles són els punts grocs i vermells al mapa.

Posi el ratolí al punt desitjat per veure el nom de l'estació.

Feu clic per veure les observacions i els pronòstics meteorològics.

Per canviar el mapa: feu clic els botons verds amb una creu de color negre per apropar; al botó verd amb un guió per allunyar la imatge; o en les fletxes verdes per a mapes adjacents.


METAR-TAF: